GLN weather

Goulimime Airport
Goulimime, Tiznit Province, Morocco

Public forecast

Using degrees Celsius for public forecast. Weather courtesy of forecast.io.

METAR (pilot weather report)

Closest report is Tan Tan Airport, 68.0 nm (126.0 km) WSW. Retrieved 2019/05/22 10:00 UTC (29 minutes ago):

GMAT 221000Z 02020KT 8000 OVC016 18/14 Q1014 NOSIG

TAF (pilot weather forecast)

Forecast is more than 12 hours old.

Closest forecast is Sidi Ifni Xx Airport, 21.6 nm (40.1 km) NNW. Retrieved 2017/11/16 18:00 UTC (2 years ago):

TAF GMMF 161700Z 1618/1724 02008KT CAVOK BECMG 1620/1624 10004KT 8000 NSC PROB30 TEMPO 1702/1707 3000 BR BKN010